sensor_id;sensor_type;location;lat;lon;timestamp;P1;durP1;ratioP1;P2;durP2;ratioP2
56005;SDS011;41888;44.696;10.522;2023-04-15T00:00:31;2.38;;;0.80;;
56005;SDS011;41888;44.696;10.522;2023-04-15T00:02:58;1.77;;;1.08;;
56005;SDS011;41888;44.696;10.522;2023-04-15T00:05:26;2.55;;;0.95;;
56005;SDS011;41888;44.696;10.522;2023-04-15T00:07:55;3.75;;;1.30;;
56005;SDS011;41888;44.696;10.522;2023-04-15T00:10:23;5.13;;;2.05;;
56005;SDS011;41888;44.696;10.522;2023-04-15T00:12:49;4.43;;;2.10;;
56005;SDS011;41888;44.696;10.522;2023-04-15T00:15:16;2.95;;;1.40;;
56005;SDS011;41888;44.696;10.522;2023-04-15T00:17:42;2.97;;;1.10;;
56005;SDS011;41888;44.696;10.522;2023-04-15T00:20:08;3.88;;;1.58;;
56005;SDS011;41888;44.696;10.522;2023-04-15T00:22:35;3.60;;;1.20;;
56005;SDS011;41888;44.696;10.522;2023-04-15T00:25:01;4.55;;;1.52;;
56005;SDS011;41888;44.696;10.522;2023-04-15T00:27:28;2.20;;;1.13;;
56005;SDS011;41888;44.696;10.522;2023-04-15T00:29:54;3.40;;;1.02;;
56005;SDS011;41888;44.696;10.522;2023-04-15T00:32:21;3.03;;;1.20;;
56005;SDS011;41888;44.696;10.522;2023-04-15T00:34:47;3.30;;;1.17;;
56005;SDS011;41888;44.696;10.522;2023-04-15T00:37:14;3.25;;;1.33;;
56005;SDS011;41888;44.696;10.522;2023-04-15T00:39:40;5.45;;;1.50;;
56005;SDS011;41888;44.696;10.522;2023-04-15T00:42:06;2.15;;;1.38;;
56005;SDS011;41888;44.696;10.522;2023-04-15T00:44:32;3.10;;;1.38;;
56005;SDS011;41888;44.696;10.522;2023-04-15T00:46:59;3.00;;;1.40;;
56005;SDS011;41888;44.696;10.522;2023-04-15T00:49:28;2.85;;;1.33;;
56005;SDS011;41888;44.696;10.522;2023-04-15T00:51:56;6.63;;;1.65;;
56005;SDS011;41888;44.696;10.522;2023-04-15T00:54:22;5.15;;;1.77;;
56005;SDS011;41888;44.696;10.522;2023-04-15T00:56:48;3.47;;;1.33;;
56005;SDS011;41888;44.696;10.522;2023-04-15T00:59:14;3.00;;;1.33;;
56005;SDS011;41888;44.696;10.522;2023-04-15T01:01:42;5.70;;;1.42;;
56005;SDS011;41888;44.696;10.522;2023-04-15T01:04:09;6.50;;;1.35;;
56005;SDS011;41888;44.696;10.522;2023-04-15T01:06:36;3.17;;;1.40;;
56005;SDS011;41888;44.696;10.522;2023-04-15T01:09:02;4.05;;;1.50;;
56005;SDS011;41888;44.696;10.522;2023-04-15T01:11:29;6.10;;;1.20;;
56005;SDS011;41888;44.696;10.522;2023-04-15T01:13:58;3.13;;;1.20;;
56005;SDS011;41888;44.696;10.522;2023-04-15T01:16:25;3.25;;;1.35;;
56005;SDS011;41888;44.696;10.522;2023-04-15T01:18:52;3.00;;;1.65;;
56005;SDS011;41888;44.696;10.522;2023-04-15T01:21:19;5.30;;;1.35;;
56005;SDS011;41888;44.696;10.522;2023-04-15T01:23:46;4.32;;;1.58;;
56005;SDS011;41888;44.696;10.522;2023-04-15T01:26:12;4.57;;;1.48;;
56005;SDS011;41888;44.696;10.522;2023-04-15T01:28:40;2.25;;;0.93;;
56005;SDS011;41888;44.696;10.522;2023-04-15T01:31:10;5.80;;;1.98;;
56005;SDS011;41888;44.696;10.522;2023-04-15T01:33:38;4.85;;;1.30;;
56005;SDS011;41888;44.696;10.522;2023-04-15T01:36:05;4.60;;;1.70;;
56005;SDS011;41888;44.696;10.522;2023-04-15T01:38:33;2.47;;;1.10;;
56005;SDS011;41888;44.696;10.522;2023-04-15T01:41:00;5.38;;;1.45;;
56005;SDS011;41888;44.696;10.522;2023-04-15T01:43:26;4.65;;;1.25;;
56005;SDS011;41888;44.696;10.522;2023-04-15T01:45:53;3.72;;;1.75;;
56005;SDS011;41888;44.696;10.522;2023-04-15T01:48:19;3.83;;;1.70;;
56005;SDS011;41888;44.696;10.522;2023-04-15T01:50:46;5.80;;;1.52;;
56005;SDS011;41888;44.696;10.522;2023-04-15T01:53:12;2.97;;;1.38;;
56005;SDS011;41888;44.696;10.522;2023-04-15T01:55:39;3.85;;;1.08;;
56005;SDS011;41888;44.696;10.522;2023-04-15T01:58:06;1.67;;;1.13;;
56005;SDS011;41888;44.696;10.522;2023-04-15T02:00:32;3.60;;;1.70;;
56005;SDS011;41888;44.696;10.522;2023-04-15T02:02:58;4.10;;;1.48;;
56005;SDS011;41888;44.696;10.522;2023-04-15T02:05:24;3.97;;;1.90;;
56005;SDS011;41888;44.696;10.522;2023-04-15T02:07:50;3.60;;;1.75;;
56005;SDS011;41888;44.696;10.522;2023-04-15T02:10:18;4.95;;;1.33;;
56005;SDS011;41888;44.696;10.522;2023-04-15T02:12:44;5.20;;;1.20;;
56005;SDS011;41888;44.696;10.522;2023-04-15T02:15:10;3.58;;;1.20;;
56005;SDS011;41888;44.696;10.522;2023-04-15T02:17:37;6.03;;;1.83;;
56005;SDS011;41888;44.696;10.522;2023-04-15T02:20:03;2.97;;;1.35;;
56005;SDS011;41888;44.696;10.522;2023-04-15T02:22:30;5.78;;;1.38;;
56005;SDS011;41888;44.696;10.522;2023-04-15T02:24:56;2.70;;;1.00;;
56005;SDS011;41888;44.696;10.522;2023-04-15T02:27:23;4.05;;;1.17;;
56005;SDS011;41888;44.696;10.522;2023-04-15T02:29:49;3.38;;;1.23;;
56005;SDS011;41888;44.696;10.522;2023-04-15T02:32:15;5.15;;;1.65;;
56005;SDS011;41888;44.696;10.522;2023-04-15T02:34:41;2.38;;;1.10;;
56005;SDS011;41888;44.696;10.522;2023-04-15T02:37:08;3.83;;;1.20;;
56005;SDS011;41888;44.696;10.522;2023-04-15T02:39:35;3.30;;;1.05;;
56005;SDS011;41888;44.696;10.522;2023-04-15T02:42:02;2.63;;;0.95;;
56005;SDS011;41888;44.696;10.522;2023-04-15T02:44:30;3.58;;;1.20;;
56005;SDS011;41888;44.696;10.522;2023-04-15T02:46:57;3.53;;;1.10;;
56005;SDS011;41888;44.696;10.522;2023-04-15T02:49:23;1.73;;;0.68;;
56005;SDS011;41888;44.696;10.522;2023-04-15T02:51:50;3.47;;;0.73;;
56005;SDS011;41888;44.696;10.522;2023-04-15T02:54:16;5.78;;;0.93;;
56005;SDS011;41888;44.696;10.522;2023-04-15T02:56:44;2.58;;;1.20;;
56005;SDS011;41888;44.696;10.522;2023-04-15T02:59:11;3.70;;;0.75;;
56005;SDS011;41888;44.696;10.522;2023-04-15T03:01:37;1.83;;;0.88;;
56005;SDS011;41888;44.696;10.522;2023-04-15T03:04:03;1.80;;;0.50;;
56005;SDS011;41888;44.696;10.522;2023-04-15T03:06:31;3.10;;;1.02;;
56005;SDS011;41888;44.696;10.522;2023-04-15T03:08:57;3.70;;;1.08;;
56005;SDS011;41888;44.696;10.522;2023-04-15T03:11:24;3.80;;;1.13;;
56005;SDS011;41888;44.696;10.522;2023-04-15T03:13:53;7.80;;;1.90;;
56005;SDS011;41888;44.696;10.522;2023-04-15T03:16:20;2.72;;;0.90;;
56005;SDS011;41888;44.696;10.522;2023-04-15T03:18:46;2.97;;;1.17;;
56005;SDS011;41888;44.696;10.522;2023-04-15T03:21:12;2.63;;;0.70;;
56005;SDS011;41888;44.696;10.522;2023-04-15T03:23:38;4.00;;;1.05;;
56005;SDS011;41888;44.696;10.522;2023-04-15T03:26:04;2.40;;;0.70;;
56005;SDS011;41888;44.696;10.522;2023-04-15T03:28:30;2.83;;;1.40;;
56005;SDS011;41888;44.696;10.522;2023-04-15T03:30:57;4.78;;;0.98;;
56005;SDS011;41888;44.696;10.522;2023-04-15T03:33:24;2.42;;;0.95;;
56005;SDS011;41888;44.696;10.522;2023-04-15T03:35:50;3.47;;;0.60;;
56005;SDS011;41888;44.696;10.522;2023-04-15T03:38:17;4.72;;;0.70;;
56005;SDS011;41888;44.696;10.522;2023-04-15T03:40:44;2.95;;;0.90;;
56005;SDS011;41888;44.696;10.522;2023-04-15T03:43:11;1.77;;;0.57;;
56005;SDS011;41888;44.696;10.522;2023-04-15T03:45:37;4.93;;;1.33;;
56005;SDS011;41888;44.696;10.522;2023-04-15T03:48:03;3.03;;;0.80;;
56005;SDS011;41888;44.696;10.522;2023-04-15T03:50:30;3.58;;;0.82;;
56005;SDS011;41888;44.696;10.522;2023-04-15T03:52:56;4.43;;;0.95;;
56005;SDS011;41888;44.696;10.522;2023-04-15T03:55:22;1.85;;;0.60;;
56005;SDS011;41888;44.696;10.522;2023-04-15T03:57:49;5.05;;;0.80;;
56005;SDS011;41888;44.696;10.522;2023-04-15T04:00:15;1.58;;;0.68;;
56005;SDS011;41888;44.696;10.522;2023-04-15T04:02:41;2.13;;;0.63;;
56005;SDS011;41888;44.696;10.522;2023-04-15T04:05:08;1.40;;;0.90;;
56005;SDS011;41888;44.696;10.522;2023-04-15T04:07:34;1.83;;;0.80;;
56005;SDS011;41888;44.696;10.522;2023-04-15T04:10:01;1.65;;;0.70;;
56005;SDS011;41888;44.696;10.522;2023-04-15T04:12:27;2.75;;;0.75;;
56005;SDS011;41888;44.696;10.522;2023-04-15T04:14:53;4.13;;;1.27;;
56005;SDS011;41888;44.696;10.522;2023-04-15T04:17:20;3.15;;;1.05;;
56005;SDS011;41888;44.696;10.522;2023-04-15T04:19:46;1.73;;;0.85;;
56005;SDS011;41888;44.696;10.522;2023-04-15T04:22:12;5.32;;;0.90;;
56005;SDS011;41888;44.696;10.522;2023-04-15T04:24:38;4.75;;;0.88;;
56005;SDS011;41888;44.696;10.522;2023-04-15T04:27:04;1.73;;;0.68;;
56005;SDS011;41888;44.696;10.522;2023-04-15T04:29:31;3.55;;;0.88;;
56005;SDS011;41888;44.696;10.522;2023-04-15T04:31:57;5.60;;;1.35;;
56005;SDS011;41888;44.696;10.522;2023-04-15T04:34:23;2.63;;;0.82;;
56005;SDS011;41888;44.696;10.522;2023-04-15T04:36:49;3.92;;;1.00;;
56005;SDS011;41888;44.696;10.522;2023-04-15T04:39:15;6.22;;;1.15;;
56005;SDS011;41888;44.696;10.522;2023-04-15T04:41:42;2.42;;;1.20;;
56005;SDS011;41888;44.696;10.522;2023-04-15T04:44:09;3.03;;;1.20;;
56005;SDS011;41888;44.696;10.522;2023-04-15T04:46:35;4.57;;;1.30;;
56005;SDS011;41888;44.696;10.522;2023-04-15T04:49:01;3.05;;;0.75;;
56005;SDS011;41888;44.696;10.522;2023-04-15T04:51:27;6.97;;;1.05;;
56005;SDS011;41888;44.696;10.522;2023-04-15T04:53:54;2.42;;;1.05;;
56005;SDS011;41888;44.696;10.522;2023-04-15T04:56:21;5.00;;;1.63;;
56005;SDS011;41888;44.696;10.522;2023-04-15T04:58:47;3.88;;;1.00;;
56005;SDS011;41888;44.696;10.522;2023-04-15T05:01:13;6.05;;;1.38;;
56005;SDS011;41888;44.696;10.522;2023-04-15T05:03:39;2.20;;;0.82;;
56005;SDS011;41888;44.696;10.522;2023-04-15T05:06:05;2.80;;;1.52;;
56005;SDS011;41888;44.696;10.522;2023-04-15T05:08:32;4.03;;;1.35;;
56005;SDS011;41888;44.696;10.522;2023-04-15T05:10:59;3.72;;;1.30;;
56005;SDS011;41888;44.696;10.522;2023-04-15T05:13:25;7.97;;;2.03;;
56005;SDS011;41888;44.696;10.522;2023-04-15T05:15:51;6.30;;;2.22;;
56005;SDS011;41888;44.696;10.522;2023-04-15T05:18:17;4.53;;;2.00;;
56005;SDS011;41888;44.696;10.522;2023-04-15T05:20:44;8.38;;;1.95;;
56005;SDS011;41888;44.696;10.522;2023-04-15T05:23:11;6.05;;;2.20;;
56005;SDS011;41888;44.696;10.522;2023-04-15T05:25:37;5.15;;;2.13;;
56005;SDS011;41888;44.696;10.522;2023-04-15T05:28:03;11.13;;;2.70;;
56005;SDS011;41888;44.696;10.522;2023-04-15T05:30:30;11.10;;;2.10;;
56005;SDS011;41888;44.696;10.522;2023-04-15T05:32:56;4.72;;;1.73;;
56005;SDS011;41888;44.696;10.522;2023-04-15T05:35:23;6.47;;;2.20;;
56005;SDS011;41888;44.696;10.522;2023-04-15T05:37:49;6.88;;;2.08;;
56005;SDS011;41888;44.696;10.522;2023-04-15T05:40:15;3.53;;;1.42;;
56005;SDS011;41888;44.696;10.522;2023-04-15T05:42:41;5.32;;;1.38;;
56005;SDS011;41888;44.696;10.522;2023-04-15T05:45:08;7.22;;;1.60;;
56005;SDS011;41888;44.696;10.522;2023-04-15T05:47:34;3.63;;;1.50;;
56005;SDS011;41888;44.696;10.522;2023-04-15T05:50:01;4.15;;;1.50;;
56005;SDS011;41888;44.696;10.522;2023-04-15T05:52:28;5.13;;;1.60;;
56005;SDS011;41888;44.696;10.522;2023-04-15T05:54:55;7.05;;;2.28;;
56005;SDS011;41888;44.696;10.522;2023-04-15T05:57:21;5.22;;;1.77;;
56005;SDS011;41888;44.696;10.522;2023-04-15T05:59:47;9.40;;;2.17;;
56005;SDS011;41888;44.696;10.522;2023-04-15T06:02:16;5.45;;;1.35;;
56005;SDS011;41888;44.696;10.522;2023-04-15T06:04:42;5.47;;;1.35;;
56005;SDS011;41888;44.696;10.522;2023-04-15T06:07:08;6.50;;;1.38;;
56005;SDS011;41888;44.696;10.522;2023-04-15T06:09:35;7.82;;;1.40;;
56005;SDS011;41888;44.696;10.522;2023-04-15T06:12:01;5.90;;;1.15;;
56005;SDS011;41888;44.696;10.522;2023-04-15T06:14:27;8.18;;;2.15;;
56005;SDS011;41888;44.696;10.522;2023-04-15T06:16:53;10.20;;;2.30;;
56005;SDS011;41888;44.696;10.522;2023-04-15T06:19:20;8.10;;;1.60;;
56005;SDS011;41888;44.696;10.522;2023-04-15T06:21:46;5.95;;;2.30;;
56005;SDS011;41888;44.696;10.522;2023-04-15T06:24:12;8.48;;;2.38;;
56005;SDS011;41888;44.696;10.522;2023-04-15T06:26:39;6.60;;;1.88;;
56005;SDS011;41888;44.696;10.522;2023-04-15T06:29:05;6.63;;;2.38;;
56005;SDS011;41888;44.696;10.522;2023-04-15T06:31:31;6.38;;;2.40;;
56005;SDS011;41888;44.696;10.522;2023-04-15T06:33:57;5.03;;;1.30;;
56005;SDS011;41888;44.696;10.522;2023-04-15T06:36:23;3.95;;;1.33;;
56005;SDS011;41888;44.696;10.522;2023-04-15T06:38:50;4.95;;;1.45;;
56005;SDS011;41888;44.696;10.522;2023-04-15T06:41:16;7.85;;;1.77;;
56005;SDS011;41888;44.696;10.522;2023-04-15T06:43:42;6.38;;;1.58;;
56005;SDS011;41888;44.696;10.522;2023-04-15T06:46:09;3.83;;;2.15;;
56005;SDS011;41888;44.696;10.522;2023-04-15T06:48:35;6.20;;;1.40;;
56005;SDS011;41888;44.696;10.522;2023-04-15T06:51:02;7.20;;;1.27;;
56005;SDS011;41888;44.696;10.522;2023-04-15T06:53:28;6.00;;;1.52;;
56005;SDS011;41888;44.696;10.522;2023-04-15T06:55:54;4.78;;;1.30;;
56005;SDS011;41888;44.696;10.522;2023-04-15T06:58:21;8.48;;;1.45;;
56005;SDS011;41888;44.696;10.522;2023-04-15T07:00:47;3.58;;;1.35;;
56005;SDS011;41888;44.696;10.522;2023-04-15T07:03:13;5.65;;;1.17;;
56005;SDS011;41888;44.696;10.522;2023-04-15T07:05:40;5.88;;;1.40;;
56005;SDS011;41888;44.696;10.522;2023-04-15T07:08:06;9.02;;;1.20;;
56005;SDS011;41888;44.696;10.522;2023-04-15T07:10:33;4.70;;;1.20;;
56005;SDS011;41888;44.696;10.522;2023-04-15T07:12:59;5.35;;;1.20;;
56005;SDS011;41888;44.696;10.522;2023-04-15T07:15:25;4.93;;;1.45;;
56005;SDS011;41888;44.696;10.522;2023-04-15T07:17:52;5.80;;;1.45;;
56005;SDS011;41888;44.696;10.522;2023-04-15T07:20:18;7.10;;;1.23;;
56005;SDS011;41888;44.696;10.522;2023-04-15T07:22:44;4.63;;;1.20;;
56005;SDS011;41888;44.696;10.522;2023-04-15T07:25:11;7.05;;;1.17;;
56005;SDS011;41888;44.696;10.522;2023-04-15T07:27:37;4.85;;;1.27;;
56005;SDS011;41888;44.696;10.522;2023-04-15T07:30:03;4.82;;;1.25;;
56005;SDS011;41888;44.696;10.522;2023-04-15T07:32:30;4.82;;;1.23;;
56005;SDS011;41888;44.696;10.522;2023-04-15T07:34:56;6.25;;;1.20;;
56005;SDS011;41888;44.696;10.522;2023-04-15T07:37:22;9.38;;;1.88;;
56005;SDS011;41888;44.696;10.522;2023-04-15T07:39:49;7.28;;;2.00;;
56005;SDS011;41888;44.696;10.522;2023-04-15T07:42:15;7.97;;;1.48;;
56005;SDS011;41888;44.696;10.522;2023-04-15T07:44:41;5.45;;;2.03;;
56005;SDS011;41888;44.696;10.522;2023-04-15T07:47:07;10.57;;;2.40;;
56005;SDS011;41888;44.696;10.522;2023-04-15T07:49:33;6.20;;;2.03;;
56005;SDS011;41888;44.696;10.522;2023-04-15T07:51:59;7.18;;;2.40;;
56005;SDS011;41888;44.696;10.522;2023-04-15T07:54:25;5.00;;;2.20;;
56005;SDS011;41888;44.696;10.522;2023-04-15T07:56:52;5.05;;;2.25;;
56005;SDS011;41888;44.696;10.522;2023-04-15T07:59:18;6.15;;;2.65;;
56005;SDS011;41888;44.696;10.522;2023-04-15T08:01:44;7.32;;;2.65;;
56005;SDS011;41888;44.696;10.522;2023-04-15T08:04:10;3.28;;;1.58;;
56005;SDS011;41888;44.696;10.522;2023-04-15T08:06:37;9.05;;;4.22;;
56005;SDS011;41888;44.696;10.522;2023-04-15T08:09:04;4.68;;;2.05;;
56005;SDS011;41888;44.696;10.522;2023-04-15T08:11:32;4.70;;;1.95;;
56005;SDS011;41888;44.696;10.522;2023-04-15T08:13:58;4.40;;;2.50;;
56005;SDS011;41888;44.696;10.522;2023-04-15T08:16:25;5.10;;;2.55;;
56005;SDS011;41888;44.696;10.522;2023-04-15T08:18:52;10.27;;;3.40;;
56005;SDS011;41888;44.696;10.522;2023-04-15T08:21:20;3.70;;;2.10;;
56005;SDS011;41888;44.696;10.522;2023-04-15T08:23:47;5.22;;;2.03;;
56005;SDS011;41888;44.696;10.522;2023-04-15T08:26:14;4.78;;;2.13;;
56005;SDS011;41888;44.696;10.522;2023-04-15T08:28:42;7.53;;;2.17;;
56005;SDS011;41888;44.696;10.522;2023-04-15T08:31:09;4.68;;;2.47;;
56005;SDS011;41888;44.696;10.522;2023-04-15T08:33:36;4.53;;;1.83;;
56005;SDS011;41888;44.696;10.522;2023-04-15T08:36:03;5.25;;;1.67;;
56005;SDS011;41888;44.696;10.522;2023-04-15T08:38:30;7.03;;;2.38;;
56005;SDS011;41888;44.696;10.522;2023-04-15T08:40:57;6.45;;;2.15;;
56005;SDS011;41888;44.696;10.522;2023-04-15T08:43:27;4.60;;;1.70;;
56005;SDS011;41888;44.696;10.522;2023-04-15T08:45:58;5.00;;;2.60;;
56005;SDS011;41888;44.696;10.522;2023-04-15T08:48:27;6.55;;;2.55;;
56005;SDS011;41888;44.696;10.522;2023-04-15T08:50:56;5.68;;;2.15;;
56005;SDS011;41888;44.696;10.522;2023-04-15T08:53:23;6.20;;;2.65;;
56005;SDS011;41888;44.696;10.522;2023-04-15T08:55:51;5.75;;;1.73;;
56005;SDS011;41888;44.696;10.522;2023-04-15T08:58:20;5.97;;;2.15;;
56005;SDS011;41888;44.696;10.522;2023-04-15T09:00:46;4.72;;;2.10;;
56005;SDS011;41888;44.696;10.522;2023-04-15T09:03:12;7.05;;;2.17;;
56005;SDS011;41888;44.696;10.522;2023-04-15T09:05:41;3.38;;;2.08;;
56005;SDS011;41888;44.696;10.522;2023-04-15T09:08:08;5.35;;;2.08;;
56005;SDS011;41888;44.696;10.522;2023-04-15T09:10:35;6.45;;;2.30;;
56005;SDS011;41888;44.696;10.522;2023-04-15T09:13:01;6.50;;;2.22;;
56005;SDS011;41888;44.696;10.522;2023-04-15T09:15:28;6.88;;;2.75;;
56005;SDS011;41888;44.696;10.522;2023-04-15T09:17:57;5.07;;;1.75;;
56005;SDS011;41888;44.696;10.522;2023-04-15T09:20:23;4.40;;;1.67;;
56005;SDS011;41888;44.696;10.522;2023-04-15T09:22:49;5.35;;;2.42;;
56005;SDS011;41888;44.696;10.522;2023-04-15T09:27:55;5.28;;;2.40;;
56005;SDS011;41888;44.696;10.522;2023-04-15T09:30:23;5.00;;;2.22;;
56005;SDS011;41888;44.696;10.522;2023-04-15T09:32:52;7.70;;;2.40;;
56005;SDS011;41888;44.696;10.522;2023-04-15T09:35:20;6.32;;;2.00;;
56005;SDS011;41888;44.696;10.522;2023-04-15T09:37:48;5.38;;;2.45;;
56005;SDS011;41888;44.696;10.522;2023-04-15T09:40:29;4.03;;;2.08;;
56005;SDS011;41888;44.696;10.522;2023-04-15T09:42:59;7.53;;;2.42;;
56005;SDS011;41888;44.696;10.522;2023-04-15T09:45:26;3.13;;;2.08;;
56005;SDS011;41888;44.696;10.522;2023-04-15T09:47:53;10.60;;;2.30;;
56005;SDS011;41888;44.696;10.522;2023-04-15T09:50:21;5.95;;;2.40;;
56005;SDS011;41888;44.696;10.522;2023-04-15T09:52:51;6.82;;;2.67;;
56005;SDS011;41888;44.696;10.522;2023-04-15T09:55:17;5.68;;;1.48;;
56005;SDS011;41888;44.696;10.522;2023-04-15T09:57:43;5.18;;;1.88;;
56005;SDS011;41888;44.696;10.522;2023-04-15T10:00:13;5.18;;;1.80;;
56005;SDS011;41888;44.696;10.522;2023-04-15T10:02:40;3.97;;;1.90;;
56005;SDS011;41888;44.696;10.522;2023-04-15T10:05:09;5.57;;;2.20;;
56005;SDS011;41888;44.696;10.522;2023-04-15T10:07:37;3.67;;;2.00;;
56005;SDS011;41888;44.696;10.522;2023-04-15T10:10:05;4.75;;;1.80;;
56005;SDS011;41888;44.696;10.522;2023-04-15T10:12:31;4.05;;;2.00;;
56005;SDS011;41888;44.696;10.522;2023-04-15T10:15:00;4.45;;;1.60;;
56005;SDS011;41888;44.696;10.522;2023-04-15T10:17:29;5.20;;;1.75;;
56005;SDS011;41888;44.696;10.522;2023-04-15T10:20:01;5.90;;;1.83;;
56005;SDS011;41888;44.696;10.522;2023-04-15T10:22:29;4.20;;;1.90;;
56005;SDS011;41888;44.696;10.522;2023-04-15T10:24:56;4.47;;;2.20;;
56005;SDS011;41888;44.696;10.522;2023-04-15T10:27:26;5.22;;;2.28;;
56005;SDS011;41888;44.696;10.522;2023-04-15T10:29:53;4.90;;;1.80;;
56005;SDS011;41888;44.696;10.522;2023-04-15T10:32:20;6.00;;;2.15;;
56005;SDS011;41888;44.696;10.522;2023-04-15T10:34:50;7.60;;;2.17;;
56005;SDS011;41888;44.696;10.522;2023-04-15T10:37:21;4.22;;;2.20;;
56005;SDS011;41888;44.696;10.522;2023-04-15T10:39:58;5.13;;;2.00;;
56005;SDS011;41888;44.696;10.522;2023-04-15T10:42:24;8.00;;;3.00;;
56005;SDS011;41888;44.696;10.522;2023-04-15T10:44:59;5.28;;;2.53;;
56005;SDS011;41888;44.696;10.522;2023-04-15T10:47:25;4.82;;;2.30;;
56005;SDS011;41888;44.696;10.522;2023-04-15T10:49:59;7.40;;;2.30;;
56005;SDS011;41888;44.696;10.522;2023-04-15T10:52:27;5.68;;;2.75;;
56005;SDS011;41888;44.696;10.522;2023-04-15T10:57:43;6.53;;;2.10;;
56005;SDS011;41888;44.696;10.522;2023-04-15T11:05:08;5.25;;;2.65;;
56005;SDS011;41888;44.696;10.522;2023-04-15T11:07:51;5.53;;;2.80;;
56005;SDS011;41888;44.696;10.522;2023-04-15T11:13:02;8.82;;;2.58;;
56005;SDS011;41888;44.696;10.522;2023-04-15T11:15:31;7.75;;;2.45;;
56005;SDS011;41888;44.696;10.522;2023-04-15T11:20:38;7.03;;;2.70;;
56005;SDS011;41888;44.696;10.522;2023-04-15T11:23:05;7.72;;;4.55;;
56005;SDS011;41888;44.696;10.522;2023-04-15T11:25:33;6.47;;;2.75;;
56005;SDS011;41888;44.696;10.522;2023-04-15T11:28:01;5.40;;;2.17;;
56005;SDS011;41888;44.696;10.522;2023-04-15T11:30:29;4.03;;;2.20;;
56005;SDS011;41888;44.696;10.522;2023-04-15T11:32:58;7.10;;;2.70;;
56005;SDS011;41888;44.696;10.522;2023-04-15T11:35:25;5.30;;;2.40;;
56005;SDS011;41888;44.696;10.522;2023-04-15T11:37:52;6.38;;;2.50;;
56005;SDS011;41888;44.696;10.522;2023-04-15T11:40:23;5.35;;;2.97;;
56005;SDS011;41888;44.696;10.522;2023-04-15T11:48:22;7.38;;;2.97;;
56005;SDS011;41888;44.696;10.522;2023-04-15T11:50:54;7.78;;;2.90;;
56005;SDS011;41888;44.696;10.522;2023-04-15T11:56:09;4.85;;;2.70;;
56005;SDS011;41888;44.696;10.522;2023-04-15T11:58:52;7.85;;;3.17;;
56005;SDS011;41888;44.696;10.522;2023-04-15T12:01:29;8.55;;;2.92;;
56005;SDS011;41888;44.696;10.522;2023-04-15T12:03:56;6.15;;;2.92;;
56005;SDS011;41888;44.696;10.522;2023-04-15T12:06:28;5.35;;;2.65;;
56005;SDS011;41888;44.696;10.522;2023-04-15T12:11:31;5.75;;;3.05;;
56005;SDS011;41888;44.696;10.522;2023-04-15T12:16:38;3.75;;;2.15;;
56005;SDS011;41888;44.696;10.522;2023-04-15T12:19:06;10.90;;;3.03;;
56005;SDS011;41888;44.696;10.522;2023-04-15T12:21:36;5.57;;;2.72;;
56005;SDS011;41888;44.696;10.522;2023-04-15T12:24:05;6.90;;;2.70;;
56005;SDS011;41888;44.696;10.522;2023-04-15T12:29:10;7.20;;;2.85;;
56005;SDS011;41888;44.696;10.522;2023-04-15T12:31:47;6.57;;;2.80;;
56005;SDS011;41888;44.696;10.522;2023-04-15T12:34:24;6.65;;;2.75;;
56005;SDS011;41888;44.696;10.522;2023-04-15T12:36:51;5.38;;;2.70;;
56005;SDS011;41888;44.696;10.522;2023-04-15T12:39:21;5.32;;;3.15;;
56005;SDS011;41888;44.696;10.522;2023-04-15T12:41:48;7.13;;;2.65;;
56005;SDS011;41888;44.696;10.522;2023-04-15T12:44:14;7.43;;;3.35;;
56005;SDS011;41888;44.696;10.522;2023-04-15T12:46:40;6.43;;;3.03;;
56005;SDS011;41888;44.696;10.522;2023-04-15T12:49:07;3.65;;;2.38;;
56005;SDS011;41888;44.696;10.522;2023-04-15T12:51:33;6.40;;;3.47;;
56005;SDS011;41888;44.696;10.522;2023-04-15T12:54:00;5.03;;;2.30;;
56005;SDS011;41888;44.696;10.522;2023-04-15T12:56:26;6.32;;;2.70;;
56005;SDS011;41888;44.696;10.522;2023-04-15T12:58:52;8.23;;;2.70;;
56005;SDS011;41888;44.696;10.522;2023-04-15T13:01:18;6.28;;;3.33;;
56005;SDS011;41888;44.696;10.522;2023-04-15T13:03:45;7.25;;;2.83;;
56005;SDS011;41888;44.696;10.522;2023-04-15T13:06:12;4.80;;;2.42;;
56005;SDS011;41888;44.696;10.522;2023-04-15T13:08:38;4.40;;;2.55;;
56005;SDS011;41888;44.696;10.522;2023-04-15T13:11:04;4.40;;;2.55;;
56005;SDS011;41888;44.696;10.522;2023-04-15T13:13:30;5.18;;;2.58;;
56005;SDS011;41888;44.696;10.522;2023-04-15T13:15:57;5.30;;;2.58;;
56005;SDS011;41888;44.696;10.522;2023-04-15T13:18:23;5.45;;;2.85;;
56005;SDS011;41888;44.696;10.522;2023-04-15T13:20:50;6.97;;;3.05;;
56005;SDS011;41888;44.696;10.522;2023-04-15T13:23:16;9.23;;;4.43;;
56005;SDS011;41888;44.696;10.522;2023-04-15T13:25:42;5.55;;;2.72;;
56005;SDS011;41888;44.696;10.522;2023-04-15T13:28:11;5.63;;;2.70;;
56005;SDS011;41888;44.696;10.522;2023-04-15T13:30:37;5.45;;;2.90;;
56005;SDS011;41888;44.696;10.522;2023-04-15T13:33:04;6.95;;;2.75;;
56005;SDS011;41888;44.696;10.522;2023-04-15T13:35:33;5.55;;;3.10;;
56005;SDS011;41888;44.696;10.522;2023-04-15T13:38:00;6.43;;;3.25;;
56005;SDS011;41888;44.696;10.522;2023-04-15T13:40:26;8.02;;;3.75;;
56005;SDS011;41888;44.696;10.522;2023-04-15T13:42:52;6.15;;;3.40;;
56005;SDS011;41888;44.696;10.522;2023-04-15T13:45:18;6.97;;;3.42;;
56005;SDS011;41888;44.696;10.522;2023-04-15T13:47:45;7.65;;;3.75;;
56005;SDS011;41888;44.696;10.522;2023-04-15T13:50:11;6.90;;;3.83;;
56005;SDS011;41888;44.696;10.522;2023-04-15T13:52:37;8.15;;;4.65;;
56005;SDS011;41888;44.696;10.522;2023-04-15T13:55:03;7.75;;;4.03;;
56005;SDS011;41888;44.696;10.522;2023-04-15T13:57:30;8.95;;;4.50;;
56005;SDS011;41888;44.696;10.522;2023-04-15T13:59:57;7.85;;;4.45;;
56005;SDS011;41888;44.696;10.522;2023-04-15T14:02:23;6.95;;;3.83;;
56005;SDS011;41888;44.696;10.522;2023-04-15T14:04:49;7.30;;;4.03;;
56005;SDS011;41888;44.696;10.522;2023-04-15T14:07:15;8.73;;;4.03;;
56005;SDS011;41888;44.696;10.522;2023-04-15T14:09:42;6.85;;;3.60;;
56005;SDS011;41888;44.696;10.522;2023-04-15T14:12:09;9.80;;;4.38;;
56005;SDS011;41888;44.696;10.522;2023-04-15T14:14:35;7.75;;;3.60;;
56005;SDS011;41888;44.696;10.522;2023-04-15T14:17:01;7.55;;;3.92;;
56005;SDS011;41888;44.696;10.522;2023-04-15T14:19:29;6.72;;;3.35;;
56005;SDS011;41888;44.696;10.522;2023-04-15T14:21:56;8.07;;;2.90;;
56005;SDS011;41888;44.696;10.522;2023-04-15T14:24:22;7.25;;;3.78;;
56005;SDS011;41888;44.696;10.522;2023-04-15T14:26:48;4.95;;;2.85;;
56005;SDS011;41888;44.696;10.522;2023-04-15T14:29:14;4.68;;;3.47;;
56005;SDS011;41888;44.696;10.522;2023-04-15T14:31:41;8.40;;;2.90;;
56005;SDS011;41888;44.696;10.522;2023-04-15T14:34:09;6.38;;;3.15;;
56005;SDS011;41888;44.696;10.522;2023-04-15T14:36:35;6.10;;;2.60;;
56005;SDS011;41888;44.696;10.522;2023-04-15T14:39:02;7.93;;;4.43;;
56005;SDS011;41888;44.696;10.522;2023-04-15T14:41:28;8.70;;;3.30;;
56005;SDS011;41888;44.696;10.522;2023-04-15T14:43:54;8.18;;;3.28;;
56005;SDS011;41888;44.696;10.522;2023-04-15T14:46:21;6.10;;;2.95;;
56005;SDS011;41888;44.696;10.522;2023-04-15T14:48:48;6.45;;;3.22;;
56005;SDS011;41888;44.696;10.522;2023-04-15T14:51:14;5.68;;;2.55;;
56005;SDS011;41888;44.696;10.522;2023-04-15T14:53:40;4.90;;;2.47;;
56005;SDS011;41888;44.696;10.522;2023-04-15T14:56:07;6.28;;;2.58;;
56005;SDS011;41888;44.696;10.522;2023-04-15T14:58:33;4.03;;;2.38;;
56005;SDS011;41888;44.696;10.522;2023-04-15T15:00:59;5.30;;;2.22;;
56005;SDS011;41888;44.696;10.522;2023-04-15T15:03:27;3.78;;;2.47;;